sensor_id;sensor_type;location;lat;lon;timestamp;temperature;humidity
18721;DHT22;9489;50.948;3.114;2024-02-21T00:00:15;9.60;99.90
18721;DHT22;9489;50.948;3.114;2024-02-21T00:02:41;9.60;99.90
18721;DHT22;9489;50.948;3.114;2024-02-21T00:05:07;9.60;99.90
18721;DHT22;9489;50.948;3.114;2024-02-21T00:07:32;9.60;99.90
18721;DHT22;9489;50.948;3.114;2024-02-21T00:09:58;9.50;99.90
18721;DHT22;9489;50.948;3.114;2024-02-21T00:12:24;9.50;99.90
18721;DHT22;9489;50.948;3.114;2024-02-21T00:14:49;9.50;99.90
18721;DHT22;9489;50.948;3.114;2024-02-21T00:17:15;9.50;99.90
18721;DHT22;9489;50.948;3.114;2024-02-21T00:19:41;9.40;99.90
18721;DHT22;9489;50.948;3.114;2024-02-21T00:22:06;9.40;99.90
18721;DHT22;9489;50.948;3.114;2024-02-21T00:24:32;9.40;99.90
18721;DHT22;9489;50.948;3.114;2024-02-21T00:26:58;9.40;99.90
18721;DHT22;9489;50.948;3.114;2024-02-21T00:29:23;9.40;99.90
18721;DHT22;9489;50.948;3.114;2024-02-21T00:31:49;9.40;99.90
18721;DHT22;9489;50.948;3.114;2024-02-21T00:34:15;9.30;99.90
18721;DHT22;9489;50.948;3.114;2024-02-21T00:36:40;9.30;99.90
18721;DHT22;9489;50.948;3.114;2024-02-21T00:39:06;9.30;99.90
18721;DHT22;9489;50.948;3.114;2024-02-21T00:41:32;9.20;99.90
18721;DHT22;9489;50.948;3.114;2024-02-21T00:43:58;9.20;99.90
18721;DHT22;9489;50.948;3.114;2024-02-21T00:46:24;9.20;99.90
18721;DHT22;9489;50.948;3.114;2024-02-21T00:48:49;9.20;99.90
18721;DHT22;9489;50.948;3.114;2024-02-21T00:51:16;9.10;99.90
18721;DHT22;9489;50.948;3.114;2024-02-21T00:53:42;9.10;99.90
18721;DHT22;9489;50.948;3.114;2024-02-21T00:56:08;9.10;99.90
18721;DHT22;9489;50.948;3.114;2024-02-21T00:58:34;9.10;99.90
18721;DHT22;9489;50.948;3.114;2024-02-21T01:01:00;9.10;99.90
18721;DHT22;9489;50.948;3.114;2024-02-21T01:03:26;9.10;99.90
18721;DHT22;9489;50.948;3.114;2024-02-21T01:05:52;9.10;99.90
18721;DHT22;9489;50.948;3.114;2024-02-21T01:08:18;9.10;99.90
18721;DHT22;9489;50.948;3.114;2024-02-21T01:10:43;9.10;99.90
18721;DHT22;9489;50.948;3.114;2024-02-21T01:13:09;9.10;99.90
18721;DHT22;9489;50.948;3.114;2024-02-21T01:15:35;9.10;99.90
18721;DHT22;9489;50.948;3.114;2024-02-21T01:18:01;9.00;99.90
18721;DHT22;9489;50.948;3.114;2024-02-21T01:20:26;9.10;99.90
18721;DHT22;9489;50.948;3.114;2024-02-21T01:22:52;9.10;99.90
18721;DHT22;9489;50.948;3.114;2024-02-21T01:25:18;9.00;99.90
18721;DHT22;9489;50.948;3.114;2024-02-21T01:27:43;9.10;99.90
18721;DHT22;9489;50.948;3.114;2024-02-21T01:30:09;9.00;99.90
18721;DHT22;9489;50.948;3.114;2024-02-21T01:32:36;9.10;99.90
18721;DHT22;9489;50.948;3.114;2024-02-21T01:35:02;9.00;99.90
18721;DHT22;9489;50.948;3.114;2024-02-21T01:37:27;9.00;99.90
18721;DHT22;9489;50.948;3.114;2024-02-21T01:39:53;9.00;99.90
18721;DHT22;9489;50.948;3.114;2024-02-21T01:42:19;9.00;99.90
18721;DHT22;9489;50.948;3.114;2024-02-21T01:44:44;8.90;99.90
18721;DHT22;9489;50.948;3.114;2024-02-21T01:47:11;9.00;99.90
18721;DHT22;9489;50.948;3.114;2024-02-21T01:49:40;9.00;99.90
18721;DHT22;9489;50.948;3.114;2024-02-21T01:52:06;8.90;99.90
18721;DHT22;9489;50.948;3.114;2024-02-21T01:54:32;8.90;99.90
18721;DHT22;9489;50.948;3.114;2024-02-21T01:56:58;8.90;99.90
18721;DHT22;9489;50.948;3.114;2024-02-21T01:59:24;8.90;99.90
18721;DHT22;9489;50.948;3.114;2024-02-21T02:01:51;8.90;99.90
18721;DHT22;9489;50.948;3.114;2024-02-21T02:04:19;8.90;99.90
18721;DHT22;9489;50.948;3.114;2024-02-21T02:06:45;8.90;99.90
18721;DHT22;9489;50.948;3.114;2024-02-21T02:09:11;9.00;99.90
18721;DHT22;9489;50.948;3.114;2024-02-21T02:11:37;9.00;99.90
18721;DHT22;9489;50.948;3.114;2024-02-21T02:14:03;9.00;99.90
18721;DHT22;9489;50.948;3.114;2024-02-21T02:16:28;9.00;99.90
18721;DHT22;9489;50.948;3.114;2024-02-21T02:18:54;9.00;99.90
18721;DHT22;9489;50.948;3.114;2024-02-21T02:21:39;9.00;99.90
18721;DHT22;9489;50.948;3.114;2024-02-21T02:24:07;9.10;99.90
18721;DHT22;9489;50.948;3.114;2024-02-21T02:26:33;9.10;99.90
18721;DHT22;9489;50.948;3.114;2024-02-21T02:28:58;9.10;99.90
18721;DHT22;9489;50.948;3.114;2024-02-21T02:31:26;9.20;99.90
18721;DHT22;9489;50.948;3.114;2024-02-21T02:33:52;9.20;99.90
18721;DHT22;9489;50.948;3.114;2024-02-21T02:36:17;9.20;99.90
18721;DHT22;9489;50.948;3.114;2024-02-21T02:38:43;9.20;99.90
18721;DHT22;9489;50.948;3.114;2024-02-21T02:41:09;9.20;99.90
18721;DHT22;9489;50.948;3.114;2024-02-21T02:43:34;9.20;99.90
18721;DHT22;9489;50.948;3.114;2024-02-21T02:46:02;9.30;99.90
18721;DHT22;9489;50.948;3.114;2024-02-21T02:48:28;9.20;99.90
18721;DHT22;9489;50.948;3.114;2024-02-21T02:50:53;9.30;99.90
18721;DHT22;9489;50.948;3.114;2024-02-21T02:53:19;9.30;99.90
18721;DHT22;9489;50.948;3.114;2024-02-21T02:55:45;9.30;99.90
18721;DHT22;9489;50.948;3.114;2024-02-21T02:58:10;9.30;99.90
18721;DHT22;9489;50.948;3.114;2024-02-21T03:00:36;9.30;99.90
18721;DHT22;9489;50.948;3.114;2024-02-21T03:03:02;9.30;99.90
18721;DHT22;9489;50.948;3.114;2024-02-21T03:05:30;9.30;99.90
18721;DHT22;9489;50.948;3.114;2024-02-21T03:07:56;9.30;99.90
18721;DHT22;9489;50.948;3.114;2024-02-21T03:10:22;9.30;99.90
18721;DHT22;9489;50.948;3.114;2024-02-21T03:12:47;9.30;99.90
18721;DHT22;9489;50.948;3.114;2024-02-21T03:15:13;9.30;99.90
18721;DHT22;9489;50.948;3.114;2024-02-21T03:17:40;9.40;99.90
18721;DHT22;9489;50.948;3.114;2024-02-21T03:20:06;9.40;99.90
18721;DHT22;9489;50.948;3.114;2024-02-21T03:22:35;9.30;99.90
18721;DHT22;9489;50.948;3.114;2024-02-21T03:25:01;9.30;99.90
18721;DHT22;9489;50.948;3.114;2024-02-21T03:27:26;9.40;99.90
18721;DHT22;9489;50.948;3.114;2024-02-21T03:29:52;9.40;99.90
18721;DHT22;9489;50.948;3.114;2024-02-21T03:32:18;9.40;99.90
18721;DHT22;9489;50.948;3.114;2024-02-21T03:34:43;9.40;99.90
18721;DHT22;9489;50.948;3.114;2024-02-21T03:37:09;9.40;99.90
18721;DHT22;9489;50.948;3.114;2024-02-21T03:39:34;9.40;99.90
18721;DHT22;9489;50.948;3.114;2024-02-21T03:42:00;9.40;99.90
18721;DHT22;9489;50.948;3.114;2024-02-21T03:44:32;9.40;99.90
18721;DHT22;9489;50.948;3.114;2024-02-21T03:47:02;9.40;99.90
18721;DHT22;9489;50.948;3.114;2024-02-21T03:49:27;9.40;99.90
18721;DHT22;9489;50.948;3.114;2024-02-21T03:51:53;9.30;99.90
18721;DHT22;9489;50.948;3.114;2024-02-21T03:54:19;9.40;99.90
18721;DHT22;9489;50.948;3.114;2024-02-21T03:56:45;9.40;99.90
18721;DHT22;9489;50.948;3.114;2024-02-21T03:59:13;9.40;99.90
18721;DHT22;9489;50.948;3.114;2024-02-21T04:01:39;9.30;99.90
18721;DHT22;9489;50.948;3.114;2024-02-21T04:04:04;9.40;99.90
18721;DHT22;9489;50.948;3.114;2024-02-21T04:06:30;9.30;99.90
18721;DHT22;9489;50.948;3.114;2024-02-21T04:08:56;9.40;99.90
18721;DHT22;9489;50.948;3.114;2024-02-21T04:11:22;9.40;99.90
18721;DHT22;9489;50.948;3.114;2024-02-21T04:13:47;9.40;99.90
18721;DHT22;9489;50.948;3.114;2024-02-21T04:16:14;9.40;99.90
18721;DHT22;9489;50.948;3.114;2024-02-21T04:18:41;9.40;99.90
18721;DHT22;9489;50.948;3.114;2024-02-21T04:21:07;9.40;99.90
18721;DHT22;9489;50.948;3.114;2024-02-21T04:23:32;9.40;99.90
18721;DHT22;9489;50.948;3.114;2024-02-21T04:25:58;9.40;99.90
18721;DHT22;9489;50.948;3.114;2024-02-21T04:28:23;9.30;99.90
18721;DHT22;9489;50.948;3.114;2024-02-21T04:30:49;9.30;99.90
18721;DHT22;9489;50.948;3.114;2024-02-21T04:33:15;9.40;99.90
18721;DHT22;9489;50.948;3.114;2024-02-21T04:35:41;9.30;99.90
18721;DHT22;9489;50.948;3.114;2024-02-21T04:38:06;9.40;99.90
18721;DHT22;9489;50.948;3.114;2024-02-21T04:40:32;9.40;99.90
18721;DHT22;9489;50.948;3.114;2024-02-21T04:42:58;9.40;99.90
18721;DHT22;9489;50.948;3.114;2024-02-21T04:45:23;9.40;99.90
18721;DHT22;9489;50.948;3.114;2024-02-21T04:47:49;9.30;99.90
18721;DHT22;9489;50.948;3.114;2024-02-21T04:50:15;9.30;99.90
18721;DHT22;9489;50.948;3.114;2024-02-21T04:52:40;9.30;99.90
18721;DHT22;9489;50.948;3.114;2024-02-21T04:55:06;9.30;99.90
18721;DHT22;9489;50.948;3.114;2024-02-21T04:57:32;9.40;99.90
18721;DHT22;9489;50.948;3.114;2024-02-21T04:59:58;9.30;99.90
18721;DHT22;9489;50.948;3.114;2024-02-21T05:02:24;9.30;99.90
18721;DHT22;9489;50.948;3.114;2024-02-21T05:04:50;9.30;99.90
18721;DHT22;9489;50.948;3.114;2024-02-21T05:07:16;9.40;99.90
18721;DHT22;9489;50.948;3.114;2024-02-21T05:09:45;9.30;99.90
18721;DHT22;9489;50.948;3.114;2024-02-21T05:12:11;9.30;99.90
18721;DHT22;9489;50.948;3.114;2024-02-21T05:14:37;9.30;99.90
18721;DHT22;9489;50.948;3.114;2024-02-21T05:17:04;9.30;99.90
18721;DHT22;9489;50.948;3.114;2024-02-21T05:19:29;9.30;99.90
18721;DHT22;9489;50.948;3.114;2024-02-21T05:21:55;9.30;99.90
18721;DHT22;9489;50.948;3.114;2024-02-21T05:24:20;9.30;99.90
18721;DHT22;9489;50.948;3.114;2024-02-21T05:26:46;9.30;99.90
18721;DHT22;9489;50.948;3.114;2024-02-21T05:29:12;9.30;99.90
18721;DHT22;9489;50.948;3.114;2024-02-21T05:34:21;9.30;99.90
18721;DHT22;9489;50.948;3.114;2024-02-21T05:36:47;9.40;99.90
18721;DHT22;9489;50.948;3.114;2024-02-21T05:39:15;9.40;99.90
18721;DHT22;9489;50.948;3.114;2024-02-21T05:41:40;9.30;99.90
18721;DHT22;9489;50.948;3.114;2024-02-21T05:44:06;9.40;99.90
18721;DHT22;9489;50.948;3.114;2024-02-21T05:46:32;9.40;99.90
18721;DHT22;9489;50.948;3.114;2024-02-21T05:48:57;9.30;99.90
18721;DHT22;9489;50.948;3.114;2024-02-21T05:51:23;9.40;99.90
18721;DHT22;9489;50.948;3.114;2024-02-21T05:53:48;9.40;99.90
18721;DHT22;9489;50.948;3.114;2024-02-21T05:56:15;9.30;99.90
18721;DHT22;9489;50.948;3.114;2024-02-21T05:58:40;9.30;99.90
18721;DHT22;9489;50.948;3.114;2024-02-21T06:01:07;9.30;99.90
18721;DHT22;9489;50.948;3.114;2024-02-21T06:03:33;9.20;99.90
18721;DHT22;9489;50.948;3.114;2024-02-21T06:05:59;9.30;99.90
18721;DHT22;9489;50.948;3.114;2024-02-21T06:08:25;9.30;99.90
18721;DHT22;9489;50.948;3.114;2024-02-21T06:10:51;9.30;99.90
18721;DHT22;9489;50.948;3.114;2024-02-21T06:13:26;9.30;99.90
18721;DHT22;9489;50.948;3.114;2024-02-21T06:15:51;9.20;99.90
18721;DHT22;9489;50.948;3.114;2024-02-21T06:18:17;9.30;99.90
18721;DHT22;9489;50.948;3.114;2024-02-21T06:20:43;9.30;99.90
18721;DHT22;9489;50.948;3.114;2024-02-21T06:23:09;9.30;99.90
18721;DHT22;9489;50.948;3.114;2024-02-21T06:25:35;9.30;99.90
18721;DHT22;9489;50.948;3.114;2024-02-21T06:28:00;9.30;99.90
18721;DHT22;9489;50.948;3.114;2024-02-21T06:30:26;9.30;99.90
18721;DHT22;9489;50.948;3.114;2024-02-21T06:32:52;9.20;99.90
18721;DHT22;9489;50.948;3.114;2024-02-21T06:35:18;9.20;99.90
18721;DHT22;9489;50.948;3.114;2024-02-21T06:37:44;9.20;99.90
18721;DHT22;9489;50.948;3.114;2024-02-21T06:40:16;9.30;99.90
18721;DHT22;9489;50.948;3.114;2024-02-21T06:42:41;9.20;99.90
18721;DHT22;9489;50.948;3.114;2024-02-21T06:45:07;9.20;99.90
18721;DHT22;9489;50.948;3.114;2024-02-21T06:47:33;9.20;99.90
18721;DHT22;9489;50.948;3.114;2024-02-21T06:49:58;9.20;99.90
18721;DHT22;9489;50.948;3.114;2024-02-21T06:52:24;9.20;99.90
18721;DHT22;9489;50.948;3.114;2024-02-21T06:54:50;9.20;99.90
18721;DHT22;9489;50.948;3.114;2024-02-21T06:57:16;9.20;99.90
18721;DHT22;9489;50.948;3.114;2024-02-21T06:59:42;9.10;99.90
18721;DHT22;9489;50.948;3.114;2024-02-21T07:02:08;9.20;99.90
18721;DHT22;9489;50.948;3.114;2024-02-21T07:04:34;9.20;99.90
18721;DHT22;9489;50.948;3.114;2024-02-21T07:07:00;9.20;99.90
18721;DHT22;9489;50.948;3.114;2024-02-21T07:09:26;9.20;99.90
18721;DHT22;9489;50.948;3.114;2024-02-21T07:11:51;9.20;99.90
18721;DHT22;9489;50.948;3.114;2024-02-21T07:14:18;9.20;99.90
18721;DHT22;9489;50.948;3.114;2024-02-21T07:16:44;9.20;99.90
18721;DHT22;9489;50.948;3.114;2024-02-21T07:19:10;9.20;99.90
18721;DHT22;9489;50.948;3.114;2024-02-21T07:21:35;9.20;99.90
18721;DHT22;9489;50.948;3.114;2024-02-21T07:24:04;9.20;99.90
18721;DHT22;9489;50.948;3.114;2024-02-21T07:26:31;9.20;99.90
18721;DHT22;9489;50.948;3.114;2024-02-21T07:28:57;9.20;99.90
18721;DHT22;9489;50.948;3.114;2024-02-21T07:31:22;9.20;99.90
18721;DHT22;9489;50.948;3.114;2024-02-21T07:33:48;9.30;99.90
18721;DHT22;9489;50.948;3.114;2024-02-21T07:36:15;9.30;99.90
18721;DHT22;9489;50.948;3.114;2024-02-21T07:38:41;9.30;99.90
18721;DHT22;9489;50.948;3.114;2024-02-21T07:41:07;9.30;99.90
18721;DHT22;9489;50.948;3.114;2024-02-21T07:43:32;9.30;99.90
18721;DHT22;9489;50.948;3.114;2024-02-21T07:45:58;9.30;99.90
18721;DHT22;9489;50.948;3.114;2024-02-21T07:48:23;9.30;99.90
18721;DHT22;9489;50.948;3.114;2024-02-21T07:50:52;9.30;99.90
18721;DHT22;9489;50.948;3.114;2024-02-21T07:53:19;9.20;99.90
18721;DHT22;9489;50.948;3.114;2024-02-21T07:55:45;9.30;99.90
18721;DHT22;9489;50.948;3.114;2024-02-21T07:58:10;9.30;99.90
18721;DHT22;9489;50.948;3.114;2024-02-21T08:00:36;9.30;99.90
18721;DHT22;9489;50.948;3.114;2024-02-21T08:03:02;9.30;99.90
18721;DHT22;9489;50.948;3.114;2024-02-21T08:05:28;9.30;99.90
18721;DHT22;9489;50.948;3.114;2024-02-21T08:07:55;9.30;99.90
18721;DHT22;9489;50.948;3.114;2024-02-21T08:10:21;9.30;99.90
18721;DHT22;9489;50.948;3.114;2024-02-21T08:12:46;9.30;99.90
18721;DHT22;9489;50.948;3.114;2024-02-21T08:15:12;9.30;99.90
18721;DHT22;9489;50.948;3.114;2024-02-21T08:17:38;9.30;99.90
18721;DHT22;9489;50.948;3.114;2024-02-21T08:20:07;9.40;99.90
18721;DHT22;9489;50.948;3.114;2024-02-21T08:22:32;9.40;99.90
18721;DHT22;9489;50.948;3.114;2024-02-21T08:24:58;9.40;99.90
18721;DHT22;9489;50.948;3.114;2024-02-21T08:27:24;9.40;99.90
18721;DHT22;9489;50.948;3.114;2024-02-21T08:29:50;9.40;99.90
18721;DHT22;9489;50.948;3.114;2024-02-21T08:32:16;9.40;99.90
18721;DHT22;9489;50.948;3.114;2024-02-21T08:34:41;9.40;99.90
18721;DHT22;9489;50.948;3.114;2024-02-21T08:37:07;9.40;99.90
18721;DHT22;9489;50.948;3.114;2024-02-21T08:39:33;9.50;99.90
18721;DHT22;9489;50.948;3.114;2024-02-21T08:41:59;9.40;99.90
18721;DHT22;9489;50.948;3.114;2024-02-21T08:44:27;9.40;99.90
18721;DHT22;9489;50.948;3.114;2024-02-21T08:46:53;9.40;99.90
18721;DHT22;9489;50.948;3.114;2024-02-21T08:49:18;9.40;99.90
18721;DHT22;9489;50.948;3.114;2024-02-21T08:51:44;9.40;99.90
18721;DHT22;9489;50.948;3.114;2024-02-21T08:54:10;9.50;99.90
18721;DHT22;9489;50.948;3.114;2024-02-21T08:56:36;9.50;99.90
18721;DHT22;9489;50.948;3.114;2024-02-21T08:59:02;9.50;99.90
18721;DHT22;9489;50.948;3.114;2024-02-21T09:01:27;9.50;99.90
18721;DHT22;9489;50.948;3.114;2024-02-21T09:03:54;9.50;99.90
18721;DHT22;9489;50.948;3.114;2024-02-21T09:06:22;9.50;99.90
18721;DHT22;9489;50.948;3.114;2024-02-21T09:08:48;9.50;99.90
18721;DHT22;9489;50.948;3.114;2024-02-21T09:11:13;9.50;99.90
18721;DHT22;9489;50.948;3.114;2024-02-21T09:13:39;9.60;99.90
18721;DHT22;9489;50.948;3.114;2024-02-21T09:16:05;9.60;99.90
18721;DHT22;9489;50.948;3.114;2024-02-21T09:18:31;9.60;99.90
18721;DHT22;9489;50.948;3.114;2024-02-21T09:20:57;9.70;99.90
18721;DHT22;9489;50.948;3.114;2024-02-21T09:23:25;9.70;99.90
18721;DHT22;9489;50.948;3.114;2024-02-21T09:25:51;9.70;99.90
18721;DHT22;9489;50.948;3.114;2024-02-21T09:28:16;9.70;99.90
18721;DHT22;9489;50.948;3.114;2024-02-21T09:30:42;9.70;99.90
18721;DHT22;9489;50.948;3.114;2024-02-21T09:33:08;9.70;99.90
18721;DHT22;9489;50.948;3.114;2024-02-21T09:35:34;9.70;99.90
18721;DHT22;9489;50.948;3.114;2024-02-21T09:38:01;9.70;99.90
18721;DHT22;9489;50.948;3.114;2024-02-21T09:40:27;9.80;99.90
18721;DHT22;9489;50.948;3.114;2024-02-21T09:43:02;9.70;99.90
18721;DHT22;9489;50.948;3.114;2024-02-21T09:45:29;9.80;99.90
18721;DHT22;9489;50.948;3.114;2024-02-21T09:50:49;9.80;99.90
18721;DHT22;9489;50.948;3.114;2024-02-21T09:53:16;9.70;99.90
18721;DHT22;9489;50.948;3.114;2024-02-21T09:55:43;9.80;99.90
18721;DHT22;9489;50.948;3.114;2024-02-21T09:58:09;9.80;99.90
18721;DHT22;9489;50.948;3.114;2024-02-21T10:00:36;9.80;99.90
18721;DHT22;9489;50.948;3.114;2024-02-21T10:03:02;9.80;99.90
18721;DHT22;9489;50.948;3.114;2024-02-21T10:05:36;9.90;99.90
18721;DHT22;9489;50.948;3.114;2024-02-21T10:08:02;9.80;99.90
18721;DHT22;9489;50.948;3.114;2024-02-21T10:10:28;9.80;99.90
18721;DHT22;9489;50.948;3.114;2024-02-21T10:12:55;9.80;99.90
18721;DHT22;9489;50.948;3.114;2024-02-21T10:15:22;9.80;99.90
18721;DHT22;9489;50.948;3.114;2024-02-21T10:17:49;9.90;99.90
18721;DHT22;9489;50.948;3.114;2024-02-21T10:20:15;9.90;99.90
18721;DHT22;9489;50.948;3.114;2024-02-21T10:22:41;10.00;99.90
18721;DHT22;9489;50.948;3.114;2024-02-21T10:27:33;9.90;99.90
18721;DHT22;9489;50.948;3.114;2024-02-21T10:29:59;10.00;99.90
18721;DHT22;9489;50.948;3.114;2024-02-21T10:32:24;10.00;99.90
18721;DHT22;9489;50.948;3.114;2024-02-21T10:35:03;9.90;99.90
18721;DHT22;9489;50.948;3.114;2024-02-21T10:37:34;9.90;99.90
18721;DHT22;9489;50.948;3.114;2024-02-21T10:40:00;9.90;99.90
18721;DHT22;9489;50.948;3.114;2024-02-21T10:42:29;9.90;99.90
18721;DHT22;9489;50.948;3.114;2024-02-21T10:45:01;9.90;99.90
18721;DHT22;9489;50.948;3.114;2024-02-21T10:47:32;9.90;99.90
18721;DHT22;9489;50.948;3.114;2024-02-21T10:50:02;9.90;99.90
18721;DHT22;9489;50.948;3.114;2024-02-21T10:52:48;9.90;99.90
18721;DHT22;9489;50.948;3.114;2024-02-21T10:55:33;9.90;99.90
18721;DHT22;9489;50.948;3.114;2024-02-21T10:58:02;9.90;99.90
18721;DHT22;9489;50.948;3.114;2024-02-21T11:00:29;10.00;99.90
18721;DHT22;9489;50.948;3.114;2024-02-21T11:02:57;9.90;99.90
18721;DHT22;9489;50.948;3.114;2024-02-21T11:05:24;10.00;99.90
18721;DHT22;9489;50.948;3.114;2024-02-21T11:07:51;10.00;99.90
18721;DHT22;9489;50.948;3.114;2024-02-21T11:10:26;10.00;99.90
18721;DHT22;9489;50.948;3.114;2024-02-21T11:13:08;10.00;99.90
18721;DHT22;9489;50.948;3.114;2024-02-21T11:15:34;9.90;99.90
18721;DHT22;9489;50.948;3.114;2024-02-21T11:17:59;10.00;99.90
18721;DHT22;9489;50.948;3.114;2024-02-21T11:20:49;10.00;99.90
18721;DHT22;9489;50.948;3.114;2024-02-21T11:23:27;9.90;99.90
18721;DHT22;9489;50.948;3.114;2024-02-21T11:26:03;10.00;99.90
18721;DHT22;9489;50.948;3.114;2024-02-21T11:28:28;9.90;99.90
18721;DHT22;9489;50.948;3.114;2024-02-21T11:31:22;10.00;99.90
18721;DHT22;9489;50.948;3.114;2024-02-21T11:33:48;10.00;99.90
18721;DHT22;9489;50.948;3.114;2024-02-21T11:36:24;10.00;99.90
18721;DHT22;9489;50.948;3.114;2024-02-21T11:38:51;10.00;99.90
18721;DHT22;9489;50.948;3.114;2024-02-21T11:41:17;10.00;99.90
18721;DHT22;9489;50.948;3.114;2024-02-21T11:43:42;10.00;99.90
18721;DHT22;9489;50.948;3.114;2024-02-21T11:46:08;10.10;99.90
18721;DHT22;9489;50.948;3.114;2024-02-21T11:48:35;10.10;99.90
18721;DHT22;9489;50.948;3.114;2024-02-21T11:51:00;10.10;99.90
18721;DHT22;9489;50.948;3.114;2024-02-21T11:53:26;10.00;99.90
18721;DHT22;9489;50.948;3.114;2024-02-21T11:55:56;10.00;99.90
18721;DHT22;9489;50.948;3.114;2024-02-21T11:58:22;10.10;99.90
18721;DHT22;9489;50.948;3.114;2024-02-21T12:00:48;10.20;99.90
18721;DHT22;9489;50.948;3.114;2024-02-21T12:03:14;10.30;99.90
18721;DHT22;9489;50.948;3.114;2024-02-21T12:05:41;10.30;99.90
18721;DHT22;9489;50.948;3.114;2024-02-21T12:08:07;10.30;99.90
18721;DHT22;9489;50.948;3.114;2024-02-21T12:10:35;10.40;99.90
18721;DHT22;9489;50.948;3.114;2024-02-21T12:13:08;10.40;99.90
18721;DHT22;9489;50.948;3.114;2024-02-21T12:15:34;10.50;99.90
18721;DHT22;9489;50.948;3.114;2024-02-21T12:18:00;10.50;99.90
18721;DHT22;9489;50.948;3.114;2024-02-21T12:20:26;10.50;99.90
18721;DHT22;9489;50.948;3.114;2024-02-21T12:22:51;10.40;99.90
18721;DHT22;9489;50.948;3.114;2024-02-21T12:25:21;10.40;99.90
18721;DHT22;9489;50.948;3.114;2024-02-21T12:27:54;10.40;99.90
18721;DHT22;9489;50.948;3.114;2024-02-21T12:30:19;10.50;99.90
18721;DHT22;9489;50.948;3.114;2024-02-21T12:32:46;10.50;99.90
18721;DHT22;9489;50.948;3.114;2024-02-21T12:35:12;10.50;99.90
18721;DHT22;9489;50.948;3.114;2024-02-21T12:37:37;10.50;99.90
18721;DHT22;9489;50.948;3.114;2024-02-21T12:40:05;10.50;99.90
18721;DHT22;9489;50.948;3.114;2024-02-21T12:42:35;10.40;99.90
18721;DHT22;9489;50.948;3.114;2024-02-21T12:45:02;10.40;99.90
18721;DHT22;9489;50.948;3.114;2024-02-21T12:47:28;10.30;99.90
18721;DHT22;9489;50.948;3.114;2024-02-21T12:49:54;10.20;99.90
18721;DHT22;9489;50.948;3.114;2024-02-21T12:52:20;10.10;99.90
18721;DHT22;9489;50.948;3.114;2024-02-21T12:54:45;10.10;99.90
18721;DHT22;9489;50.948;3.114;2024-02-21T12:57:11;10.00;99.90
18721;DHT22;9489;50.948;3.114;2024-02-21T12:59:36;9.90;99.90
18721;DHT22;9489;50.948;3.114;2024-02-21T13:02:02;9.90;99.90
18721;DHT22;9489;50.948;3.114;2024-02-21T13:04:28;9.90;99.90
18721;DHT22;9489;50.948;3.114;2024-02-21T13:06:53;9.90;99.90
18721;DHT22;9489;50.948;3.114;2024-02-21T13:09:20;9.90;99.90
18721;DHT22;9489;50.948;3.114;2024-02-21T13:11:46;9.90;99.90
18721;DHT22;9489;50.948;3.114;2024-02-21T13:14:12;9.90;99.90
18721;DHT22;9489;50.948;3.114;2024-02-21T13:16:38;10.00;99.90
18721;DHT22;9489;50.948;3.114;2024-02-21T13:19:07;9.90;99.90
18721;DHT22;9489;50.948;3.114;2024-02-21T13:21:36;9.90;99.90
18721;DHT22;9489;50.948;3.114;2024-02-21T13:24:02;9.90;99.90
18721;DHT22;9489;50.948;3.114;2024-02-21T13:26:27;10.00;99.90
18721;DHT22;9489;50.948;3.114;2024-02-21T13:28:53;10.00;99.90
18721;DHT22;9489;50.948;3.114;2024-02-21T13:31:19;9.90;99.90
18721;DHT22;9489;50.948;3.114;2024-02-21T13:33:45;10.00;99.90
18721;DHT22;9489;50.948;3.114;2024-02-21T13:36:11;9.90;99.90
18721;DHT22;9489;50.948;3.114;2024-02-21T13:38:37;9.90;99.90
18721;DHT22;9489;50.948;3.114;2024-02-21T13:41:05;9.90;99.90
18721;DHT22;9489;50.948;3.114;2024-02-21T13:43:31;9.90;99.90
18721;DHT22;9489;50.948;3.114;2024-02-21T13:45:58;9.90;99.90
18721;DHT22;9489;50.948;3.114;2024-02-21T13:48:24;9.90;99.90
18721;DHT22;9489;50.948;3.114;2024-02-21T13:50:50;9.90;99.90
18721;DHT22;9489;50.948;3.114;2024-02-21T13:53:16;9.90;99.90
18721;DHT22;9489;50.948;3.114;2024-02-21T13:55:44;9.90;99.90
18721;DHT22;9489;50.948;3.114;2024-02-21T13:58:10;9.90;99.90
18721;DHT22;9489;50.948;3.114;2024-02-21T14:00:36;9.80;99.90
18721;DHT22;9489;50.948;3.114;2024-02-21T14:03:02;9.80;99.90
18721;DHT22;9489;50.948;3.114;2024-02-21T14:05:28;9.80;99.90
18721;DHT22;9489;50.948;3.114;2024-02-21T14:07:54;9.80;99.90
18721;DHT22;9489;50.948;3.114;2024-02-21T14:10:20;9.80;99.90
18721;DHT22;9489;50.948;3.114;2024-02-21T14:12:46;9.70;99.90
18721;DHT22;9489;50.948;3.114;2024-02-21T14:15:13;9.80;99.90
18721;DHT22;9489;50.948;3.114;2024-02-21T14:17:39;9.70;99.90
18721;DHT22;9489;50.948;3.114;2024-02-21T14:20:06;9.70;99.90
18721;DHT22;9489;50.948;3.114;2024-02-21T14:22:32;9.70;99.90
18721;DHT22;9489;50.948;3.114;2024-02-21T14:24:58;9.70;99.90
18721;DHT22;9489;50.948;3.114;2024-02-21T14:27:24;9.70;99.90
18721;DHT22;9489;50.948;3.114;2024-02-21T14:29:49;9.70;99.90
18721;DHT22;9489;50.948;3.114;2024-02-21T14:32:15;9.70;99.90
18721;DHT22;9489;50.948;3.114;2024-02-21T14:34:41;9.70;99.90
18721;DHT22;9489;50.948;3.114;2024-02-21T14:37:06;9.70;99.90
18721;DHT22;9489;50.948;3.114;2024-02-21T14:39:32;9.70;99.90
18721;DHT22;9489;50.948;3.114;2024-02-21T14:42:00;9.70;99.90
18721;DHT22;9489;50.948;3.114;2024-02-21T14:44:25;9.70;99.90
18721;DHT22;9489;50.948;3.114;2024-02-21T14:46:52;9.70;99.90
18721;DHT22;9489;50.948;3.114;2024-02-21T14:49:18;9.70;99.90
18721;DHT22;9489;50.948;3.114;2024-02-21T14:51:44;9.70;99.90
18721;DHT22;9489;50.948;3.114;2024-02-21T14:54:10;9.70;99.90
18721;DHT22;9489;50.948;3.114;2024-02-21T14:56:36;9.70;99.90
18721;DHT22;9489;50.948;3.114;2024-02-21T14:59:02;9.70;99.90
18721;DHT22;9489;50.948;3.114;2024-02-21T15:01:29;9.70;99.90
18721;DHT22;9489;50.948;3.114;2024-02-21T15:03:55;9.70;99.90
18721;DHT22;9489;50.948;3.114;2024-02-21T15:06:20;9.70;99.90
18721;DHT22;9489;50.948;3.114;2024-02-21T15:08:46;9.70;99.90
18721;DHT22;9489;50.948;3.114;2024-02-21T15:11:14;9.70;99.90
18721;DHT22;9489;50.948;3.114;2024-02-21T15:13:39;9.70;99.90
18721;DHT22;9489;50.948;3.114;2024-02-21T15:16:05;9.70;99.90
18721;DHT22;9489;50.948;3.114;2024-02-21T15:18:31;9.70;99.90
18721;DHT22;9489;50.948;3.114;2024-02-21T15:20:59;9.80;99.90
18721;DHT22;9489;50.948;3.114;2024-02-21T15:23:25;9.70;99.90
18721;DHT22;9489;50.948;3.114;2024-02-21T15:25:51;9.80;99.90
18721;DHT22;9489;50.948;3.114;2024-02-21T15:28:16;9.80;99.90
18721;DHT22;9489;50.948;3.114;2024-02-21T15:30:42;9.80;99.90
18721;DHT22;9489;50.948;3.114;2024-02-21T15:33:08;9.80;99.90
18721;DHT22;9489;50.948;3.114;2024-02-21T15:35:34;9.80;99.90
18721;DHT22;9489;50.948;3.114;2024-02-21T15:38:01;9.80;99.90
18721;DHT22;9489;50.948;3.114;2024-02-21T15:40:27;9.80;99.90
18721;DHT22;9489;50.948;3.114;2024-02-21T15:42:53;9.80;99.90
18721;DHT22;9489;50.948;3.114;2024-02-21T15:45:19;9.80;99.90
18721;DHT22;9489;50.948;3.114;2024-02-21T15:47:45;9.80;99.90
18721;DHT22;9489;50.948;3.114;2024-02-21T15:50:10;9.80;99.90
18721;DHT22;9489;50.948;3.114;2024-02-21T15:52:37;9.80;99.90
18721;DHT22;9489;50.948;3.114;2024-02-21T15:55:05;9.90;99.90
18721;DHT22;9489;50.948;3.114;2024-02-21T15:57:36;9.90;99.90
18721;DHT22;9489;50.948;3.114;2024-02-21T16:00:02;9.90;99.90
18721;DHT22;9489;50.948;3.114;2024-02-21T16:02:29;9.90;99.90